Time;durP1;ratioP1;P1;durP2;ratioP2;P2;SDS_P1;SDS_P2;PMS_P1;PMS_P2;Temp;Humidity;BMP_temperature;BMP_pressure;BME280_temperature;BME280_humidity;BME280_pressure;Samples;Min_cycle;Max_cycle;Signal;HPM_P1;HPM_P2
2023/06/11 00:00:09;;;;;;;;;;;;;;;22.00;57.79;98110.19;7376668;19;19942;-69
2023/06/11 00:02:36;;;;;;;;;;;;;;;22.00;57.12;98110.19;7377145;19;19918;-69
2023/06/11 00:05:09;;;;;;;;;;;;;;;21.99;57.32;98110.44;7380055;19;19923;-69
2023/06/11 00:07:37;;;;;;;;;;;;;;;21.98;58.04;98106.09;7376383;19;20660;-69
2023/06/11 00:10:04;;;;;;;;;;;;;;;22.01;58.20;98108.31;7382104;19;19922;-69
2023/06/11 00:12:34;;;;;;;;;;;;;;;21.89;58.12;98100.25;7381085;19;20648;-69
2023/06/11 00:15:02;;;;;;;;;;;;;;;21.89;59.06;98109.13;7378987;19;20975;-69
2023/06/11 00:17:29;;;;;;;;;;;;;;;21.86;59.21;98104.22;7380879;19;19915;-69
2023/06/11 00:19:56;;;;;;;;;;;;;;;21.79;58.37;98106.22;7371201;19;19970;-69
2023/06/11 00:22:26;;;;;;;;;;;;;;;21.76;58.90;98106.69;7383147;19;19925;-69
2023/06/11 00:24:53;;;;;;;;;;;;;;;21.70;58.38;98108.44;7379855;19;19925;-69
2023/06/11 00:27:20;;;;;;;;;;;;;;;21.62;58.48;98108.78;7382307;19;20001;-69
2023/06/11 00:29:47;;;;;;;;;;;;;;;21.64;59.47;98103.16;7377938;19;20355;-69
2023/06/11 00:32:14;;;;;;;;;;;;;;;21.59;58.60;98100.34;7380752;19;19922;-69
2023/06/11 00:34:40;;;;;;;;;;;;;;;21.56;59.22;98096.25;7378082;19;19944;-69
2023/06/11 00:37:08;;;;;;;;;;;;;;;21.53;59.27;98106.69;7378238;19;20001;-69
2023/06/11 00:39:35;;;;;;;;;;;;;;;21.44;58.94;98101.63;7377102;19;19918;-70
2023/06/11 00:42:02;;;;;;;;;;;;;;;21.35;59.49;98105.69;7377562;19;19934;-70
2023/06/11 00:44:29;;;;;;;;;;;;;;;21.27;59.91;98098.78;7378403;19;20255;-69
2023/06/11 00:46:57;;;;;;;;;;;;;;;21.29;60.07;98108.47;7374774;19;19914;-69
2023/06/11 00:49:24;;;;;;;;;;;;;;;21.25;60.58;98108.13;7372536;19;19961;-69
2023/06/11 00:51:51;;;;;;;;;;;;;;;21.17;59.89;98111.13;7377909;19;19922;-69
2023/06/11 00:54:18;;;;;;;;;;;;;;;21.07;60.53;98108.22;7380188;19;19923;-68
2023/06/11 00:56:45;;;;;;;;;;;;;;;21.15;60.73;98110.56;7373543;19;19930;-68
2023/06/11 00:59:13;;;;;;;;;;;;;;;21.15;60.81;98113.25;7377663;19;19944;-69
2023/06/11 01:01:59;;;;;;;;;;;;;;;21.12;60.99;98119.09;7377415;19;19922;-69
2023/06/11 01:04:26;;;;;;;;;;;;;;;21.14;60.90;98119.66;7379840;19;20352;-69
2023/06/11 01:06:54;;;;;;;;;;;;;;;21.09;60.93;98114.16;7374775;19;19923;-69
2023/06/11 01:09:22;;;;;;;;;;;;;;;21.01;61.39;98120.69;7379077;19;19919;-69
2023/06/11 01:11:55;;;;;;;;;;;;;;;20.93;61.47;98121.84;7374910;19;20368;-69
2023/06/11 01:14:22;;;;;;;;;;;;;;;20.89;62.01;98120.66;7379540;19;19915;-68
2023/06/11 01:16:57;;;;;;;;;;;;;;;20.81;61.57;98119.09;7375263;19;19915;-68
2023/06/11 01:19:24;;;;;;;;;;;;;;;20.76;61.76;98118.16;7373522;19;19939;-68
2023/06/11 01:21:54;;;;;;;;;;;;;;;20.79;62.21;98115.00;7371872;19;19919;-68
2023/06/11 01:24:24;;;;;;;;;;;;;;;20.78;62.16;98110.69;7380184;19;19933;-68
2023/06/11 01:27:06;;;;;;;;;;;;;;;20.72;62.14;98111.56;7369832;19;20412;-69
2023/06/11 01:29:33;;;;;;;;;;;;;;;20.74;62.52;98110.31;7376474;19;20285;-68
2023/06/11 01:32:00;;;;;;;;;;;;;;;20.72;62.53;98116.94;7376036;19;19922;-69
2023/06/11 01:34:27;;;;;;;;;;;;;;;20.73;62.27;98118.59;7378164;19;19926;-69
2023/06/11 01:36:54;;;;;;;;;;;;;;;20.76;61.71;98118.97;7369502;19;20339;-71
2023/06/11 01:39:21;;;;;;;;;;;;;;;20.77;62.14;98114.41;7376144;19;20245;-69
2023/06/11 01:41:59;;;;;;;;;;;;;;;20.74;62.59;98113.00;7373270;19;19918;-69
2023/06/11 01:44:26;;;;;;;;;;;;;;;20.73;62.15;98111.34;7379175;19;20322;-69
2023/06/11 01:46:53;;;;;;;;;;;;;;;20.74;62.48;98104.09;7377956;19;20011;-69
2023/06/11 01:49:20;;;;;;;;;;;;;;;20.71;62.46;98105.38;7376032;19;19919;-69
2023/06/11 01:51:47;;;;;;;;;;;;;;;20.69;62.20;98112.84;7372185;19;19923;-69
2023/06/11 01:54:14;;;;;;;;;;;;;;;20.66;62.12;98112.50;7371111;19;20019;-69
2023/06/11 01:56:41;;;;;;;;;;;;;;;20.60;62.55;98109.66;7374926;19;19926;-69
2023/06/11 01:59:07;;;;;;;;;;;;;;;20.56;62.60;98119.25;7374865;19;19982;-69
2023/06/11 02:01:36;;;;;;;;;;;;;;;20.54;62.78;98115.13;7376207;19;20315;-69
2023/06/11 02:04:03;;;;;;;;;;;;;;;20.49;63.52;98110.41;7374374;19;19934;-69
2023/06/11 02:06:31;;;;;;;;;;;;;;;20.48;62.95;98118.69;7374089;19;19950;-68
2023/06/11 02:08:58;;;;;;;;;;;;;;;20.41;63.56;98118.78;7368864;19;19925;-69
2023/06/11 02:11:24;;;;;;;;;;;;;;;20.38;63.49;98120.03;7376542;19;20267;-68
2023/06/11 02:13:51;;;;;;;;;;;;;;;20.36;63.67;98111.38;7376405;19;20263;-69
2023/06/11 02:16:18;;;;;;;;;;;;;;;20.34;63.57;98104.59;7380105;19;19943;-69
2023/06/11 02:18:45;;;;;;;;;;;;;;;20.32;64.08;98107.50;7375554;19;20244;-69
2023/06/11 02:21:11;;;;;;;;;;;;;;;20.30;63.95;98104.22;7375795;19;19926;-69
2023/06/11 02:23:38;;;;;;;;;;;;;;;20.39;64.35;98112.81;7372627;19;20259;-69
2023/06/11 02:26:05;;;;;;;;;;;;;;;20.39;63.54;98118.16;7368344;19;20919;-69
2023/06/11 02:28:32;;;;;;;;;;;;;;;20.38;63.82;98114.66;7379541;19;19918;-69
2023/06/11 02:30:59;;;;;;;;;;;;;;;20.34;63.74;98121.53;7374711;19;20494;-69
2023/06/11 02:33:25;;;;;;;;;;;;;;;20.25;63.33;98122.03;7375580;19;20276;-69
2023/06/11 02:35:52;;;;;;;;;;;;;;;20.19;63.26;98115.69;7375425;19;19922;-69
2023/06/11 02:38:19;;;;;;;;;;;;;;;20.21;63.59;98121.69;7378720;19;19940;-69
2023/06/11 02:40:46;;;;;;;;;;;;;;;20.20;63.30;98121.91;7367750;19;19923;-69
2023/06/11 02:43:13;;;;;;;;;;;;;;;20.20;63.55;98121.91;7374095;19;19926;-69
2023/06/11 02:45:40;;;;;;;;;;;;;;;20.17;63.26;98121.31;7378532;19;19923;-68
2023/06/11 02:48:06;;;;;;;;;;;;;;;20.13;63.10;98130.84;7377091;19;19919;-69
2023/06/11 02:50:34;;;;;;;;;;;;;;;20.04;63.30;98123.34;7375642;19;19918;-69
2023/06/11 02:53:00;;;;;;;;;;;;;;;20.03;63.62;98127.84;7375663;19;19927;-69
2023/06/11 02:55:27;;;;;;;;;;;;;;;20.03;63.24;98125.16;7376658;19;19911;-69
2023/06/11 02:57:54;;;;;;;;;;;;;;;20.03;63.71;98125.16;7369679;19;20606;-69
2023/06/11 03:00:21;;;;;;;;;;;;;;;20.02;63.84;98130.78;7372872;19;19919;-68
2023/06/11 03:02:47;;;;;;;;;;;;;;;19.91;63.73;98125.09;7377407;19;19922;-68
2023/06/11 03:05:19;;;;;;;;;;;;;;;19.96;64.53;98132.50;7374844;19;19919;-68
2023/06/11 03:07:46;;;;;;;;;;;;;;;19.95;63.78;98149.63;7373997;19;19919;-69
2023/06/11 03:10:13;;;;;;;;;;;;;;;19.91;64.32;98149.25;7373251;19;19919;-69
2023/06/11 03:12:40;;;;;;;;;;;;;;;19.89;64.03;98148.66;7372607;19;19919;-69
2023/06/11 03:15:07;;;;;;;;;;;;;;;19.86;64.24;98157.16;7367711;19;19919;-69
2023/06/11 03:17:34;;;;;;;;;;;;;;;19.83;64.26;98157.59;7372539;19;19922;-68
2023/06/11 03:20:01;;;;;;;;;;;;;;;19.84;64.79;98158.41;7370945;19;19926;-68
2023/06/11 03:22:27;;;;;;;;;;;;;;;19.79;64.10;98155.56;7372610;19;19926;-68
2023/06/11 03:24:55;;;;;;;;;;;;;;;19.72;64.20;98160.97;7374183;19;19919;-68
2023/06/11 03:27:28;;;;;;;;;;;;;;;19.76;64.78;98156.03;7375009;19;19922;-68
2023/06/11 03:29:55;;;;;;;;;;;;;;;19.74;64.44;98159.72;7369861;19;19918;-68
2023/06/11 03:32:22;;;;;;;;;;;;;;;19.73;65.08;98160.78;7369245;19;19938;-68
2023/06/11 03:34:53;;;;;;;;;;;;;;;19.68;64.89;98160.59;7368704;19;19922;-68
2023/06/11 03:37:22;;;;;;;;;;;;;;;19.62;64.83;98166.03;7376322;19;19918;-68
2023/06/11 03:39:53;;;;;;;;;;;;;;;19.64;65.46;98156.72;7372614;19;20237;-68
2023/06/11 03:42:20;;;;;;;;;;;;;;;19.65;64.45;98158.34;7373119;19;19923;-68
2023/06/11 03:44:48;;;;;;;;;;;;;;;19.71;65.02;98153.97;7374745;19;19992;-68
2023/06/11 03:47:15;;;;;;;;;;;;;;;19.68;64.73;98159.78;7374432;19;20244;-68
2023/06/11 03:49:43;;;;;;;;;;;;;;;19.71;65.11;98151.31;7371431;19;20002;-68
2023/06/11 03:52:09;;;;;;;;;;;;;;;19.74;65.60;98162.41;7376034;19;19944;-68
2023/06/11 03:54:36;;;;;;;;;;;;;;;19.73;64.87;98158.09;7376406;19;20312;-68
2023/06/11 03:57:03;;;;;;;;;;;;;;;19.74;64.73;98159.72;7369309;19;19918;-69
2023/06/11 03:59:30;;;;;;;;;;;;;;;19.72;64.69;98167.19;7374980;19;20352;-69
2023/06/11 04:01:57;;;;;;;;;;;;;;;19.72;65.18;98169.88;7376583;19;19915;-68
2023/06/11 04:04:23;;;;;;;;;;;;;;;19.75;65.61;98168.63;7375326;19;19919;-68
2023/06/11 04:06:50;;;;;;;;;;;;;;;19.72;65.86;98169.03;7373538;19;19922;-69
2023/06/11 04:09:17;;;;;;;;;;;;;;;19.75;66.06;98182.03;7368985;19;19922;-69
2023/06/11 04:11:45;;;;;;;;;;;;;;;19.69;65.35;98177.53;7371185;19;19952;-69
2023/06/11 04:14:13;;;;;;;;;;;;;;;19.58;65.18;98172.84;7374613;19;19947;-68
2023/06/11 04:16:40;;;;;;;;;;;;;;;19.49;65.70;98181.16;7376218;19;20599;-68
2023/06/11 04:19:06;;;;;;;;;;;;;;;19.33;65.90;98189.75;7366822;19;19923;-68
2023/06/11 04:21:33;;;;;;;;;;;;;;;19.22;66.25;98198.47;7373453;19;19935;-68
2023/06/11 04:24:00;;;;;;;;;;;;;;;19.16;66.65;98189.44;7376100;19;20292;-68
2023/06/11 04:26:28;;;;;;;;;;;;;;;19.20;66.90;98192.53;7378527;19;19937;-68
2023/06/11 04:28:56;;;;;;;;;;;;;;;19.21;66.65;98197.66;7382737;19;19927;-69
2023/06/11 04:31:26;;;;;;;;;;;;;;;19.25;66.55;98190.00;7381595;19;19961;-69
2023/06/11 04:33:56;;;;;;;;;;;;;;;19.28;66.86;98190.38;7381380;19;19940;-69
2023/06/11 04:36:24;;;;;;;;;;;;;;;19.38;67.23;98197.13;7380675;19;19946;-69
2023/06/11 04:38:53;;;;;;;;;;;;;;;19.50;67.32;98192.72;7377084;19;20521;-69
2023/06/11 04:41:23;;;;;;;;;;;;;;;19.58;67.20;98189.75;7378723;19;19933;-69
2023/06/11 04:43:52;;;;;;;;;;;;;;;19.59;66.75;98196.78;7379324;19;19923;-69
2023/06/11 04:46:19;;;;;;;;;;;;;;;19.63;66.08;98186.44;7381056;19;20385;-69
2023/06/11 04:48:50;;;;;;;;;;;;;;;19.75;66.89;98192.78;7380560;19;19978;-68
2023/06/11 04:51:17;;;;;;;;;;;;;;;19.82;67.34;98190.84;7380472;19;19922;-69
2023/06/11 04:53:46;;;;;;;;;;;;;;;19.85;66.14;98203.84;7381276;19;22425;-70
2023/06/11 04:56:15;;;;;;;;;;;;;;;19.89;66.11;98193.47;7376587;19;19915;-70
2023/06/11 04:58:42;;;;;;;;;;;;;;;19.96;65.88;98199.63;7379231;19;20291;-70
2023/06/11 05:01:09;;;;;;;;;;;;;;;20.03;66.01;98196.84;7381446;19;19986;-70
2023/06/11 05:03:39;;;;;;;;;;;;;;;20.07;66.68;98201.56;7382389;19;19931;-70
2023/06/11 05:06:13;;;;;;;;;;;;;;;20.07;65.12;98190.84;7378292;19;19950;-70
2023/06/11 05:08:42;;;;;;;;;;;;;;;20.08;64.76;98192.47;7381944;19;19970;-70
2023/06/11 05:11:09;;;;;;;;;;;;;;;19.96;64.70;98194.25;7378412;19;19975;-70
2023/06/11 05:13:37;;;;;;;;;;;;;;;20.01;64.22;98191.72;7382253;19;20347;-70
2023/06/11 05:16:05;;;;;;;;;;;;;;;19.98;64.95;98191.31;7377650;19;19925;-70
2023/06/11 05:18:33;;;;;;;;;;;;;;;20.08;64.94;98183.59;7382544;19;19927;-70
2023/06/11 05:21:03;;;;;;;;;;;;;;;20.16;65.34;98183.31;7376759;19;19939;-69
2023/06/11 05:23:31;;;;;;;;;;;;;;;20.24;65.37;98190.25;7379974;19;20411;-70
2023/06/11 05:26:08;;;;;;;;;;;;;;;20.27;65.43;98189.81;7375228;19;20553;-70
2023/06/11 05:28:38;;;;;;;;;;;;;;;20.33;63.77;98202.38;7377488;19;20520;-70
2023/06/11 05:31:06;;;;;;;;;;;;;;;20.35;63.67;98194.88;7376431;19;19937;-70
2023/06/11 05:33:33;;;;;;;;;;;;;;;20.39;64.14;98209.53;7375493;19;19994;-70
2023/06/11 05:35:59;;;;;;;;;;;;;;;20.43;64.55;98205.34;7380881;19;19930;-70
2023/06/11 05:38:28;;;;;;;;;;;;;;;20.45;64.18;98205.94;7379133;19;20442;-70
2023/06/11 05:40:58;;;;;;;;;;;;;;;20.48;64.37;98208.16;7373925;19;19932;-70
2023/06/11 05:43:26;;;;;;;;;;;;;;;20.48;64.34;98212.72;7380228;19;19915;-69
2023/06/11 05:45:52;;;;;;;;;;;;;;;20.52;63.96;98212.06;7373579;19;19942;-70
2023/06/11 05:48:20;;;;;;;;;;;;;;;20.46;63.91;98215.66;7377116;19;19935;-70
2023/06/11 05:50:47;;;;;;;;;;;;;;;20.46;63.90;98210.28;7381192;19;20337;-70
2023/06/11 05:53:14;;;;;;;;;;;;;;;20.46;63.57;98214.81;7379881;19;19923;-70
2023/06/11 05:55:41;;;;;;;;;;;;;;;20.46;63.37;98215.66;7381822;19;20328;-70
2023/06/11 05:58:10;;;;;;;;;;;;;;;20.55;63.52;98218.91;7377116;19;19944;-70
2023/06/11 06:00:37;;;;;;;;;;;;;;;20.63;64.17;98215.09;7380481;19;20324;-70
2023/06/11 06:03:04;;;;;;;;;;;;;;;20.71;63.65;98217.47;7380015;19;19915;-70
2023/06/11 06:05:33;;;;;;;;;;;;;;;20.68;63.48;98221.44;7377148;19;20318;-70
2023/06/11 06:08:00;;;;;;;;;;;;;;;20.81;63.58;98217.78;7379782;19;20585;-70
2023/06/11 06:10:27;;;;;;;;;;;;;;;20.86;63.37;98214.41;7375562;19;19925;-70
2023/06/11 06:12:54;;;;;;;;;;;;;;;20.86;63.14;98223.28;7376853;19;19925;-69
2023/06/11 06:15:21;;;;;;;;;;;;;;;20.92;63.01;98221.56;7375812;19;19946;-70
2023/06/11 06:17:47;;;;;;;;;;;;;;;21.01;63.07;98222.88;7378089;19;19923;-70
2023/06/11 06:20:23;;;;;;;;;;;;;;;20.94;63.10;98224.84;7371752;19;20083;-70
2023/06/11 06:22:49;;;;;;;;;;;;;;;20.93;63.06;98234.78;7379792;19;20343;-70
2023/06/11 06:25:17;;;;;;;;;;;;;;;21.08;62.69;98233.56;7379980;19;19940;-70
2023/06/11 06:27:45;;;;;;;;;;;;;;;21.03;62.38;98232.38;7378718;19;19919;-70
2023/06/11 06:30:13;;;;;;;;;;;;;;;21.08;61.23;98238.94;7373809;19;19982;-70
2023/06/11 06:32:40;;;;;;;;;;;;;;;21.12;62.39;98238.28;7377995;19;20581;-70
2023/06/11 06:35:08;;;;;;;;;;;;;;;21.28;63.58;98231.44;7375333;19;19918;-70
2023/06/11 06:37:36;;;;;;;;;;;;;;;21.25;62.46;98243.47;7376445;19;19926;-70
2023/06/11 06:40:03;;;;;;;;;;;;;;;21.40;61.47;98248.47;7372531;19;19923;-70
2023/06/11 06:42:31;;;;;;;;;;;;;;;21.50;62.35;98239.84;7375741;19;19979;-70
2023/06/11 06:45:01;;;;;;;;;;;;;;;21.55;60.61;98239.97;7376627;19;19982;-70
2023/06/11 06:47:27;;;;;;;;;;;;;;;21.69;60.50;98244.09;7375461;19;19919;-70
2023/06/11 06:49:54;;;;;;;;;;;;;;;21.66;60.50;98239.19;7371763;19;19931;-70
2023/06/11 06:52:21;;;;;;;;;;;;;;;21.66;60.11;98239.19;7369480;19;19922;-70
2023/06/11 06:54:52;;;;;;;;;;;;;;;21.80;59.44;98239.81;7374495;19;19922;-70
2023/06/11 06:57:18;;;;;;;;;;;;;;;21.84;60.04;98248.25;7372130;19;19943;-70
2023/06/11 06:59:45;;;;;;;;;;;;;;;21.95;58.39;98244.75;7376715;19;19978;-71
2023/06/11 07:02:13;;;;;;;;;;;;;;;22.00;57.92;98241.34;7376605;19;19946;-71
2023/06/11 07:04:41;;;;;;;;;;;;;;;22.12;57.98;98242.19;7376499;19;19915;-70
2023/06/11 07:07:08;;;;;;;;;;;;;;;22.19;58.23;98240.22;7377577;19;19921;-71
2023/06/11 07:09:35;;;;;;;;;;;;;;;22.18;57.06;98240.44;7369604;19;19943;-70
2023/06/11 07:12:02;;;;;;;;;;;;;;;;;;7371788;19;20383;-69
2023/06/11 07:14:29;;;;;;;;;;;;;;;22.35;55.72;98233.31;7376461;19;19926;-71
2023/06/11 07:16:56;;;;;;;;;;;;;;;22.35;55.01;98241.38;7377025;19;19943;-70
2023/06/11 07:19:22;;;;;;;;;;;;;;;22.44;53.94;98233.78;7374829;19;19915;-71
2023/06/11 07:21:49;;;;;;;;;;;;;;;22.48;54.32;98240.34;7375374;19;20294;-70
2023/06/11 07:24:17;;;;;;;;;;;;;;;22.56;54.72;98229.19;7373729;19;19922;-70
2023/06/11 07:26:44;;;;;;;;;;;;;;;22.58;54.55;98235.16;7372815;19;20266;-71
2023/06/11 07:29:11;;;;;;;;;;;;;;;22.61;53.86;98234.69;7372526;19;19923;-70
2023/06/11 07:31:40;;;;;;;;;;;;;;;22.65;53.35;98241.25;7374712;19;19923;-71
2023/06/11 07:34:07;;;;;;;;;;;;;;;22.72;53.04;98246.50;7375035;19;19918;-70
2023/06/11 07:36:34;;;;;;;;;;;;;;;22.72;53.19;98250.06;7375057;19;20375;-70
2023/06/11 07:39:03;;;;;;;;;;;;;;;22.76;53.75;98245.81;7368294;19;20275;-70
2023/06/11 07:41:30;;;;;;;;;;;;;;;22.84;52.33;98246.50;7369269;19;19922;-71
2023/06/11 07:43:57;;;;;;;;;;;;;;;22.92;52.88;98246.94;7371383;19;20324;-70
2023/06/11 07:46:23;;;;;;;;;;;;;;;23.03;53.00;98245.28;7376023;19;19982;-70
2023/06/11 07:48:51;;;;;;;;;;;;;;;22.98;52.48;98240.59;7375270;19;19926;-70
2023/06/11 07:51:20;;;;;;;;;;;;;;;23.07;53.77;98242.97;7375468;19;19919;-71
2023/06/11 07:53:56;;;;;;;;;;;;;;;22.98;51.43;98246.00;7374456;19;19938;-71
2023/06/11 07:56:23;;;;;;;;;;;;;;;23.10;51.59;98248.69;7372736;19;19919;-71
2023/06/11 07:58:50;;;;;;;;;;;;;;;23.14;50.78;98241.72;7379448;19;19972;-70
2023/06/11 08:01:16;;;;;;;;;;;;;;;23.15;50.69;98238.00;7379271;19;20610;-70
2023/06/11 08:03:43;;;;;;;;;;;;;;;23.23;51.62;98240.31;7381993;19;19925;-70
2023/06/11 08:06:10;;;;;;;;;;;;;;;23.29;50.78;98243.91;7378087;19;20010;-70
2023/06/11 08:08:39;;;;;;;;;;;;;;;23.37;50.54;98240.81;7374520;19;19922;-72
2023/06/11 08:11:06;;;;;;;;;;;;;;;23.45;50.38;98242.31;7378097;19;19958;-70
2023/06/11 08:13:34;;;;;;;;;;;;;;;23.57;51.03;98234.19;7380470;19;19935;-70
2023/06/11 08:16:01;;;;;;;;;;;;;;;23.64;51.36;98240.22;7376834;19;19922;-70
2023/06/11 08:18:28;;;;;;;;;;;;;;;23.64;50.40;98230.25;7379688;19;20375;-72
2023/06/11 08:20:55;;;;;;;;;;;;;;;23.57;49.23;98228.78;7373052;19;19971;-71
2023/06/11 08:23:21;;;;;;;;;;;;;;;23.54;48.78;98223.84;7380041;19;19919;-69
2023/06/11 08:25:48;;;;;;;;;;;;;;;23.60;49.38;98218.28;7380879;19;19926;-71
2023/06/11 08:28:15;;;;;;;;;;;;;;;23.70;49.85;98216.81;7379833;19;19918;-71
2023/06/11 08:30:42;;;;;;;;;;;;;;;23.71;48.13;98223.88;7379896;19;19922;-71
2023/06/11 08:33:09;;;;;;;;;;;;;;;23.73;47.16;98227.19;7380392;19;20021;-68
2023/06/11 08:35:36;;;;;;;;;;;;;;;23.72;46.11;98220.13;7380614;19;19923;-69
2023/06/11 08:38:03;;;;;;;;;;;;;;;23.82;48.78;98223.00;7383197;19;19918;-68
2023/06/11 08:40:29;;;;;;;;;;;;;;;23.90;47.13;98219.88;7381906;19;20275;-69
2023/06/11 08:42:56;;;;;;;;;;;;;;;23.93;48.07;98218.59;7380201;19;20002;-70
2023/06/11 08:45:23;;;;;;;;;;;;;;;24.00;46.49;98221.94;7384194;19;19921;-70
2023/06/11 08:47:52;;;;;;;;;;;;;;;24.11;46.81;98218.31;7382179;19;19922;-69
2023/06/11 08:50:20;;;;;;;;;;;;;;;24.15;45.72;98215.97;7374861;19;19933;-70
2023/06/11 08:52:53;;;;;;;;;;;;;;;24.23;47.03;98213.66;7381958;19;19922;-70
2023/06/11 08:55:20;;;;;;;;;;;;;;;24.26;45.48;98209.63;7380788;19;19927;-70
2023/06/11 08:57:46;;;;;;;;;;;;;;;24.30;44.62;98210.75;7375740;19;20137;-70
2023/06/11 09:00:14;;;;;;;;;;;;;;;24.37;43.66;98210.59;7380521;19;19922;-70
2023/06/11 09:02:40;;;;;;;;;;;;;;;24.43;43.38;98207.69;7381264;19;20399;-70
2023/06/11 09:05:08;;;;;;;;;;;;;;;24.46;42.90;98214.53;7379077;19;20605;-69
2023/06/11 09:07:36;;;;;;;;;;;;;;;24.44;41.98;98208.53;7378731;19;19919;-69
2023/06/11 09:10:09;;;;;;;;;;;;;;;24.49;41.65;98209.47;7377582;19;20309;-69
2023/06/11 09:12:36;;;;;;;;;;;;;;;24.63;43.66;98209.91;7379961;19;19986;-70
2023/06/11 09:15:04;;;;;;;;;;;;;;;24.73;41.23;98204.63;7381931;19;19919;-72
2023/06/11 09:17:38;;;;;;;;;;;;;;;24.79;41.37;98201.97;7382301;19;20344;-70
2023/06/11 09:20:07;;;;;;;;;;;;;;;24.79;39.85;98213.63;7379223;19;19921;-70
2023/06/11 09:22:36;;;;;;;;;;;;;;;24.82;40.01;98207.69;7380549;19;19918;-69
2023/06/11 09:25:05;;;;;;;;;;;;;;;24.87;39.82;98196.94;7379833;19;19919;-70
2023/06/11 09:27:32;;;;;;;;;;;;;;;24.93;39.13;98204.03;7376775;19;19919;-70
2023/06/11 09:30:09;;;;;;;;;;;;;;;24.85;36.81;98204.47;7378430;19;19974;-69
2023/06/11 09:32:37;;;;;;;;;;;;;;;24.96;37.32;98198.13;7382081;19;19926;-70
2023/06/11 09:35:05;;;;;;;;;;;;;;;24.98;38.24;98197.88;7380330;19;20352;-71
2023/06/11 09:37:42;;;;;;;;;;;;;;;25.09;37.70;98198.78;7382820;19;20535;-70
2023/06/11 09:40:10;;;;;;;;;;;;;;;25.23;36.23;98189.25;7378013;19;19919;-71
2023/06/11 09:42:37;;;;;;;;;;;;;;;25.44;37.90;98194.88;7367751;19;19927;-70
2023/06/11 09:45:05;;;;;;;;;;;;;;;25.51;37.51;98187.34;7375892;19;19929;-69
2023/06/11 09:47:32;;;;;;;;;;;;;;;25.68;37.44;98203.50;7380239;19;19915;-70
2023/06/11 09:49:59;;;;;;;;;;;;;;;25.76;37.32;98203.00;7355454;19;19918;-70
2023/06/11 09:52:26;;;;;;;;;;;;;;;25.86;36.90;98203.13;7380789;19;19922;-70
2023/06/11 09:54:53;;;;;;;;;;;;;;;26.16;35.60;98194.38;7378456;19;19983;-71
2023/06/11 09:57:20;;;;;;;;;;;;;;;26.38;34.13;98198.84;7373132;19;19960;-70
2023/06/11 09:59:46;;;;;;;;;;;;;;;26.78;33.57;98202.88;7366888;19;19922;-70
2023/06/11 10:02:13;;;;;;;;;;;;;;;26.96;32.90;98202.38;7372488;19;19933;-69
2023/06/11 10:04:40;;;;;;;;;;;;;;;27.11;34.19;98205.16;7376614;19;19925;-70
2023/06/11 10:07:07;;;;;;;;;;;;;;;27.49;32.90;98197.69;7375366;19;19914;-70
2023/06/11 10:09:34;;;;;;;;;;;;;;;28.14;31.96;98200.66;7373706;19;20254;-70
2023/06/11 10:12:00;;;;;;;;;;;;;;;28.45;30.97;98200.63;7370710;19;19930;-71
2023/06/11 10:14:27;;;;;;;;;;;;;;;28.73;29.81;98193.75;7373914;19;19919;-70
2023/06/11 10:16:54;;;;;;;;;;;;;;;28.97;29.99;98202.09;7373569;19;19942;-70
2023/06/11 10:19:21;;;;;;;;;;;;;;;29.04;29.00;98188.13;7369706;19;21071;-71
2023/06/11 10:21:51;;;;;;;;;;;;;;;29.46;29.31;98197.72;7371636;19;20276;-70
2023/06/11 10:24:24;;;;;;;;;;;;;;;29.36;29.30;98203.25;7375923;19;20350;-71
2023/06/11 10:27:05;;;;;;;;;;;;;;;28.82;29.70;98192.06;7374462;19;19926;-70
2023/06/11 10:29:38;;;;;;;;;;;;;;;28.70;30.68;98194.31;7376094;19;20253;-70
2023/06/11 10:32:14;;;;;;;;;;;;;;;28.27;31.08;98193.84;7375630;19;19923;-70
2023/06/11 10:34:41;;;;;;;;;;;;;;;28.14;31.58;98194.41;7379483;19;19939;-71
2023/06/11 10:37:09;;;;;;;;;;;;;;;27.97;31.20;98202.88;7374499;19;20316;-71
2023/06/11 10:39:36;;;;;;;;;;;;;;;27.85;30.43;98186.81;7373469;19;19919;-71
2023/06/11 10:42:02;;;;;;;;;;;;;;;27.58;33.11;98193.31;7373021;19;19933;-70
2023/06/11 10:44:30;;;;;;;;;;;;;;;27.15;33.28;98200.03;7378334;19;19951;-69
2023/06/11 10:47:00;;;;;;;;;;;;;;;26.80;33.52;98187.94;7374348;19;19911;-69
2023/06/11 10:49:27;;;;;;;;;;;;;;;26.73;33.65;98200.16;7375516;19;19933;-69
2023/06/11 10:51:54;;;;;;;;;;;;;;;26.61;34.53;98193.03;7372690;19;21448;-70
2023/06/11 10:54:25;;;;;;;;;;;;;;;26.54;34.18;98184.34;7377624;19;19933;-71
2023/06/11 10:56:52;;;;;;;;;;;;;;;26.54;35.93;98187.06;7375723;19;19978;-70
2023/06/11 10:59:20;;;;;;;;;;;;;;;26.41;35.32;98184.75;7373463;19;19923;-70
2023/06/11 11:01:46;;;;;;;;;;;;;;;26.33;35.61;98183.38;7376574;19;20192;-70
2023/06/11 11:04:13;;;;;;;;;;;;;;;26.49;35.29;98179.66;7376545;19;19927;-70
2023/06/11 11:06:43;;;;;;;;;;;;;;;26.69;35.29;98187.09;7369997;19;19950;-69
2023/06/11 11:09:11;;;;;;;;;;;;;;;26.74;35.45;98182.78;7372717;19;19926;-70
2023/06/11 11:11:41;;;;;;;;;;;;;;;26.96;35.90;98185.28;7366913;19;19944;-71
2023/06/11 11:14:07;;;;;;;;;;;;;;;27.00;35.77;98183.69;7369235;19;19947;-70
2023/06/11 11:16:34;;;;;;;;;;;;;;;26.98;33.98;98183.94;7372665;19;19915;-69
2023/06/11 11:19:01;;;;;;;;;;;;;;;27.04;33.36;98184.78;7362345;19;19923;-71
2023/06/11 11:21:29;;;;;;;;;;;;;;;26.83;34.71;98186.59;7375456;19;19918;-70
2023/06/11 11:23:59;;;;;;;;;;;;;;;26.77;34.75;98182.25;7371421;19;20720;-69
2023/06/11 11:26:27;;;;;;;;;;;;;;;26.68;35.16;98182.75;7372927;19;19930;-70
2023/06/11 11:28:54;;;;;;;;;;;;;;;26.63;34.19;98177.31;7373298;19;19929;-70
2023/06/11 11:31:22;;;;;;;;;;;;;;;26.62;35.17;98180.28;7374026;19;19923;-70
2023/06/11 11:33:50;;;;;;;;;;;;;;;26.59;35.76;98176.19;7379297;19;20282;-70
2023/06/11 11:36:17;;;;;;;;;;;;;;;26.67;35.39;98172.16;7380096;19;19915;-70
2023/06/11 11:38:44;;;;;;;;;;;;;;;26.65;35.80;98161.59;7383503;19;19947;-70
2023/06/11 11:41:10;;;;;;;;;;;;;;;26.58;35.75;98169.16;7378966;19;20561;-69
2023/06/11 11:43:41;;;;;;;;;;;;;;;26.56;35.15;98165.06;7383685;19;19931;-70
2023/06/11 11:46:20;;;;;;;;;;;;;;;26.51;35.32;98163.09;7382272;19;20217;-70
2023/06/11 11:48:47;;;;;;;;;;;;;;;26.64;34.78;98168.06;7380320;19;19930;-70
2023/06/11 11:51:15;;;;;;;;;;;;;;;26.70;34.60;98163.50;7381095;19;19962;-70
2023/06/11 11:53:42;;;;;;;;;;;;;;;26.75;35.09;98158.06;7381635;19;19935;-70
2023/06/11 11:56:09;;;;;;;;;;;;;;;26.73;34.21;98154.84;7374872;19;19978;-70
2023/06/11 11:58:39;;;;;;;;;;;;;;;26.68;35.26;98154.81;7380196;19;19950;-70
2023/06/11 12:01:09;;;;;;;;;;;;;;;26.63;32.79;98150.19;7375619;19;20703;-71
2023/06/11 12:03:39;;;;;;;;;;;;;;;26.56;32.94;98151.50;7377774;19;19982;-70
2023/06/11 12:06:07;;;;;;;;;;;;;;;26.54;33.67;98145.50;7379373;19;19926;-69
2023/06/11 12:08:34;;;;;;;;;;;;;;;26.57;33.96;98151.25;7377769;19;19925;-74
2023/06/11 12:11:02;;;;;;;;;;;;;;;26.58;35.47;98143.91;7377468;19;19929;-71
2023/06/11 12:13:29;;;;;;;;;;;;;;;26.70;35.27;98137.19;7376699;19;19923;-70
2023/06/11 12:15:55;;;;;;;;;;;;;;;26.97;33.91;98141.59;7375663;19;19931;-71
2023/06/11 12:18:22;;;;;;;;;;;;;;;27.10;33.70;98146.50;7378846;19;19925;-70
2023/06/11 12:20:49;;;;;;;;;;;;;;;26.92;32.09;98149.72;7378946;19;19926;-68
2023/06/11 12:23:15;;;;;;;;;;;;;;;26.85;32.47;98146.44;7379253;19;19975;-69
2023/06/11 12:25:42;;;;;;;;;;;;;;;26.82;32.98;98142.38;7382115;19;20000;-69
2023/06/11 12:28:09;;;;;;;;;;;;;;;26.77;33.18;98134.22;7376425;19;19919;-69
2023/06/11 12:30:36;;;;;;;;;;;;;;;26.80;34.55;98135.56;7375803;19;19922;-69
2023/06/11 12:33:02;;;;;;;;;;;;;;;26.97;32.66;98132.66;7377266;19;19929;-70
2023/06/11 12:35:30;;;;;;;;;;;;;;;27.03;32.51;98131.56;7379992;19;19922;-70
2023/06/11 12:37:56;;;;;;;;;;;;;;;27.03;33.29;98120.72;7379343;19;19931;-69
2023/06/11 12:40:23;;;;;;;;;;;;;;;26.85;32.47;98117.41;7373336;19;20307;-71
2023/06/11 12:42:56;;;;;;;;;;;;;;;26.84;32.69;98125.81;7376027;19;19931;-69
2023/06/11 12:45:25;;;;;;;;;;;;;;;26.74;32.57;98131.22;7378971;19;20167;-68
2023/06/11 12:47:51;;;;;;;;;;;;;;;26.52;36.26;98121.38;7378940;19;19922;-69
2023/06/11 12:50:18;;;;;;;;;;;;;;;26.31;37.71;98122.34;7372393;19;19993;-69